Terminal Aerodrome Forecast
Issued by NWS

Home | Current Version | Previous Version | Text Only | Print | Product List | Glossary On
Versions: 1 2 3 4 5 6 7 8 9 10 11 12 13
790
FTUS46 KSGX 030537
TAFSNA
TAF
KSNA 030537Z 0306/0406 06012G22KT P6SM SKC WS015/05045KT
     FM031200 05010G22KT P6SM SKC WS015/06035KT
     FM040200 31005KT P6SM SKC=

USA.gov is the U.S. government's official web portal to all federal, state and local government web resources and services.